createdAt,value
2018-02-06T00:00:55.416Z,8.77
2018-02-06T00:03:23.878Z,4.53
2018-02-06T00:05:52.394Z,6.27
2018-02-06T00:08:20.883Z,9.47
2018-02-06T00:10:49.346Z,8.30
2018-02-06T00:13:17.838Z,9.90
2018-02-06T00:15:46.330Z,6.93
2018-02-06T00:18:14.840Z,7.30
2018-02-06T00:20:43.327Z,8.77
2018-02-06T00:23:11.818Z,7.97
2018-02-06T00:25:40.314Z,4.20
2018-02-06T00:28:09.546Z,7.80
2018-02-06T00:30:38.749Z,7.67
2018-02-06T00:33:07.864Z,6.17
2018-02-06T00:35:38.169Z,5.50
2018-02-06T00:38:07.415Z,5.57
2018-02-06T00:40:35.887Z,8.03
2018-02-06T00:43:05.734Z,6.53
2018-02-06T00:45:34.212Z,4.30
2018-02-06T00:48:02.678Z,5.20
2018-02-06T00:50:31.170Z,6.63
2018-02-06T00:52:59.648Z,6.97
2018-02-06T00:55:28.144Z,6.97
2018-02-06T00:57:56.647Z,7.73
2018-02-06T01:00:26.050Z,5.03
2018-02-06T01:02:55.287Z,4.87
2018-02-06T01:05:23.763Z,7.70
2018-02-06T01:07:52.062Z,5.27
2018-02-06T01:10:20.539Z,6.67
2018-02-06T01:12:49.035Z,8.40
2018-02-06T01:15:18.278Z,4.60
2018-02-06T01:17:46.780Z,3.87
2018-02-06T01:20:15.277Z,7.57
2018-02-06T01:22:43.786Z,4.57
2018-02-06T01:25:12.254Z,7.23
2018-02-06T01:27:40.758Z,4.20
2018-02-06T01:30:10.506Z,5.70
2018-02-06T01:32:39.958Z,6.77
2018-02-06T01:35:09.204Z,3.10
2018-02-06T01:37:37.969Z,7.40
2018-02-06T01:40:07.328Z,7.73
2018-02-06T01:42:37.214Z,5.87
2018-02-06T01:45:05.693Z,9.83
2018-02-06T01:47:34.179Z,5.23
2018-02-06T01:50:04.806Z,8.30
2018-02-06T01:52:34.240Z,7.50
2018-02-06T01:55:02.740Z,7.13
2018-02-06T01:57:31.259Z,8.97
2018-02-06T01:59:59.749Z,11.37
2018-02-06T02:02:29.193Z,6.80
2018-02-06T02:04:58.090Z,9.77
2018-02-06T02:07:27.394Z,9.50
2018-02-06T02:09:55.883Z,11.67
2018-02-06T02:12:24.354Z,12.10
2018-02-06T02:14:52.847Z,8.07
2018-02-06T02:17:21.353Z,8.67
2018-02-06T02:19:49.837Z,9.20
2018-02-06T02:22:18.314Z,6.30
2018-02-06T02:24:46.798Z,9.07
2018-02-06T02:27:15.277Z,9.07
2018-02-06T02:29:43.744Z,3.17
2018-02-06T02:32:12.226Z,5.70
2018-02-06T02:34:40.726Z,5.00
2018-02-06T02:37:10.151Z,7.67
2018-02-06T02:39:39.411Z,5.73
2018-02-06T04:38:37.782Z,6.63
2018-02-06T04:41:06.661Z,12.13
2018-02-06T04:43:35.130Z,5.93
2018-02-06T04:46:03.668Z,14.00
2018-02-06T04:48:32.164Z,14.57
2018-02-06T04:51:00.743Z,13.73
2018-02-06T04:53:29.227Z,12.07
2018-02-06T04:55:57.729Z,12.97
2018-02-06T04:58:26.219Z,12.77
2018-02-06T05:00:54.708Z,12.97
2018-02-06T05:03:23.197Z,14.40
2018-02-06T05:05:51.680Z,15.20
2018-02-06T05:08:20.186Z,15.23
2018-02-06T05:10:48.658Z,14.13
2018-02-06T05:13:17.120Z,13.77
2018-02-06T05:15:45.620Z,15.50
2018-02-06T05:18:14.109Z,14.07
2018-02-06T05:20:42.609Z,14.93
2018-02-06T05:23:11.863Z,14.93
2018-02-06T05:25:41.147Z,14.00
2018-02-06T05:28:09.664Z,14.10
2018-02-06T05:30:38.138Z,14.03
2018-02-06T05:33:07.372Z,14.87
2018-02-06T05:35:37.274Z,12.27
2018-02-06T05:38:05.423Z,11.00
2018-02-06T05:40:33.936Z,10.77
2018-02-06T05:43:03.184Z,7.20
2018-02-06T05:45:31.667Z,6.30
2018-02-06T05:48:00.157Z,9.00
2018-02-06T05:50:28.641Z,9.43
2018-02-06T05:52:57.124Z,15.23
2018-02-06T05:55:25.613Z,12.97
2018-02-06T05:57:54.181Z,14.73
2018-02-06T06:00:22.668Z,14.73
2018-02-06T06:02:51.152Z,14.37
2018-02-06T06:05:19.653Z,15.73
2018-02-06T06:07:48.902Z,14.73
2018-02-06T06:10:17.378Z,16.03
2018-02-06T06:12:45.885Z,15.83
2018-02-06T06:15:14.360Z,16.30
2018-02-06T06:17:42.849Z,14.77
2018-02-06T06:20:11.334Z,16.60
2018-02-06T06:22:39.826Z,16.87
2018-02-06T06:25:09.884Z,16.60
2018-02-06T06:27:39.207Z,16.77
2018-02-06T06:30:08.328Z,15.53
2018-02-06T06:32:37.306Z,16.00
2018-02-06T06:35:05.793Z,13.43
2018-02-06T06:37:34.317Z,15.37
2018-02-06T06:40:02.799Z,14.83
2018-02-06T06:42:32.296Z,11.07
2018-02-06T06:45:00.781Z,16.40
2018-02-06T06:47:29.297Z,14.83
2018-02-06T06:49:57.789Z,16.23
2018-02-06T06:52:26.269Z,18.13
2018-02-06T06:54:54.769Z,16.83
2018-02-06T06:57:24.048Z,17.40
2018-02-06T06:59:52.546Z,15.57
2018-02-06T07:02:21.040Z,16.83
2018-02-06T07:04:50.282Z,17.20
2018-02-06T07:07:18.771Z,19.27
2018-02-06T07:09:47.280Z,16.90
2018-02-06T07:12:15.766Z,16.30
2018-02-06T07:14:44.240Z,17.10
2018-02-06T07:17:13.531Z,17.67
2018-02-06T07:19:42.018Z,19.17
2018-02-06T07:22:10.530Z,17.97
2018-02-06T07:24:39.764Z,16.87
2018-02-06T07:27:08.250Z,15.87
2018-02-06T07:29:37.523Z,17.70
2018-02-06T07:32:06.024Z,17.80
2018-02-06T07:34:34.529Z,17.80
2018-02-06T07:37:03.013Z,17.63
2018-02-06T07:39:31.483Z,20.73
2018-02-06T07:41:59.986Z,18.83
2018-02-06T07:44:29.221Z,19.03
2018-02-06T07:46:57.720Z,18.27
2018-02-06T07:49:26.209Z,18.77
2018-02-06T07:51:55.508Z,18.43
2018-02-06T07:54:23.982Z,18.67
2018-02-06T07:56:53.220Z,20.43
2018-02-06T07:59:22.477Z,18.30
2018-02-06T08:01:50.943Z,19.03
2018-02-06T08:04:19.413Z,18.97
2018-02-06T08:06:47.904Z,19.60
2018-02-06T08:09:16.381Z,17.60
2018-02-06T08:11:44.853Z,17.73
2018-02-06T08:14:13.362Z,17.80
2018-02-06T08:16:41.848Z,18.13
2018-02-06T08:19:10.358Z,20.57
2018-02-06T08:21:39.602Z,20.37
2018-02-06T08:24:08.731Z,19.13
2018-02-06T08:26:38.105Z,17.90
2018-02-06T08:29:06.689Z,18.60
2018-02-06T08:31:35.167Z,18.80
2018-02-06T08:34:03.654Z,19.53
2018-02-06T08:36:32.129Z,18.93
2018-02-06T08:39:00.619Z,18.20
2018-02-06T08:41:29.122Z,20.37
2018-02-06T08:43:57.595Z,19.67
2018-02-06T08:46:25.733Z,19.33
2018-02-06T08:48:54.220Z,19.03
2018-02-06T08:51:22.722Z,17.80
2018-02-06T08:53:51.245Z,18.80
2018-02-06T08:56:20.486Z,19.40
2018-02-06T08:58:48.967Z,20.07
2018-02-06T09:01:17.492Z,18.93
2018-02-06T09:03:46.728Z,19.57
2018-02-06T09:06:15.213Z,19.80
2018-02-06T09:08:43.712Z,18.57
2018-02-06T09:11:12.219Z,20.27
2018-02-06T09:13:40.902Z,19.23
2018-02-06T09:16:10.321Z,17.43
2018-02-06T09:18:39.580Z,18.10
2018-02-06T09:21:08.815Z,19.40
2018-02-06T09:23:38.314Z,17.83
2018-02-06T09:26:08.025Z,18.37
2018-02-06T09:28:38.073Z,19.27
2018-02-06T09:31:07.543Z,18.37
2018-02-06T09:33:37.590Z,17.33
2018-02-06T09:36:05.748Z,20.73
2018-02-06T09:38:34.247Z,18.57
2018-02-06T09:41:02.754Z,19.67
2018-02-06T09:43:31.244Z,18.97
2018-02-06T09:45:59.719Z,19.80
2018-02-06T09:48:28.229Z,20.13
2018-02-06T09:50:57.488Z,21.83
2018-02-06T09:53:25.988Z,20.17
2018-02-06T09:55:54.469Z,21.67
2018-02-06T09:58:22.945Z,20.13
2018-02-06T10:00:51.451Z,21.03
2018-02-06T10:03:20.685Z,20.20
2018-02-06T10:05:49.161Z,20.03
2018-02-06T10:08:17.656Z,19.73
2018-02-06T10:10:46.128Z,19.83
2018-02-06T10:13:14.631Z,19.90
2018-02-06T10:15:43.861Z,19.17
2018-02-06T10:18:12.376Z,19.27
2018-02-06T10:20:40.858Z,19.10
2018-02-06T10:23:09.519Z,19.70
2018-02-06T10:25:39.741Z,19.67
2018-02-06T10:28:08.976Z,19.73
2018-02-06T10:30:37.450Z,17.83
2018-02-06T10:33:05.930Z,19.27
2018-02-06T10:35:34.444Z,18.83
2018-02-06T10:38:02.945Z,20.80
2018-02-06T10:40:31.439Z,19.70
2018-02-06T10:43:00.678Z,19.63
2018-02-06T10:45:29.163Z,20.40
2018-02-06T10:47:57.627Z,19.23
2018-02-06T10:50:26.124Z,19.27
2018-02-06T10:52:54.629Z,17.40
2018-02-06T10:55:23.294Z,18.40
2018-02-06T10:57:52.521Z,19.10
2018-02-06T11:00:21.022Z,19.03
2018-02-06T11:02:50.248Z,20.63
2018-02-06T11:05:18.721Z,20.10
2018-02-06T11:07:47.197Z,21.20
2018-02-06T11:10:15.720Z,20.53
2018-02-06T11:12:44.210Z,19.17
2018-02-06T11:15:12.687Z,23.50
2018-02-06T11:17:41.168Z,19.77
2018-02-06T11:22:53.078Z,20.90
2018-02-06T11:25:21.561Z,19.37
2018-02-06T11:27:50.037Z,20.07
2018-02-06T11:30:18.518Z,20.93
2018-02-06T11:32:47.008Z,21.77
2018-02-06T11:35:15.482Z,19.57
2018-02-06T11:37:43.948Z,20.27
2018-02-06T11:40:12.460Z,18.60
2018-02-06T11:42:42.691Z,19.27
2018-02-06T11:45:11.946Z,20.03
2018-02-06T11:47:40.450Z,20.30
2018-02-06T11:50:08.922Z,20.93
2018-02-06T11:52:38.341Z,17.83
2018-02-06T11:55:08.223Z,18.97
2018-02-06T11:57:36.795Z,19.23
2018-02-06T12:00:04.756Z,18.40
2018-02-06T12:02:34.206Z,18.20
2018-02-06T12:05:03.466Z,20.70
2018-02-06T12:07:31.947Z,20.23
2018-02-06T12:10:00.102Z,18.93
2018-02-06T12:12:29.565Z,18.77
2018-02-06T12:14:58.809Z,19.10
2018-02-06T12:17:27.311Z,17.70
2018-02-06T12:19:55.592Z,20.37
2018-02-06T12:22:24.075Z,19.10
2018-02-06T12:24:52.552Z,16.87
2018-02-06T12:27:21.039Z,17.90
2018-02-06T12:29:49.519Z,18.97
2018-02-06T12:32:18.040Z,19.33
2018-02-06T12:34:46.528Z,18.33
2018-02-06T12:37:14.997Z,20.80
2018-02-06T12:39:43.472Z,17.77
2018-02-06T12:42:12.710Z,17.23
2018-02-06T12:44:41.197Z,18.77
2018-02-06T12:47:09.677Z,19.70
2018-02-06T12:49:39.007Z,19.63
2018-02-06T12:52:07.554Z,19.53
2018-02-06T12:54:36.043Z,18.47
2018-02-06T12:57:04.541Z,18.60
2018-02-06T12:59:32.999Z,18.00
2018-02-06T13:02:01.467Z,18.27
2018-02-06T13:04:29.954Z,18.57
2018-02-06T13:06:58.429Z,19.07
2018-02-06T13:09:26.880Z,19.53
2018-02-06T13:11:55.368Z,20.97
2018-02-06T13:14:23.873Z,17.80
2018-02-06T13:16:52.343Z,19.20
2018-02-06T13:19:20.801Z,19.93
2018-02-06T13:21:49.289Z,19.03
2018-02-06T13:24:17.834Z,19.50
2018-02-06T13:26:47.083Z,18.47
2018-02-06T13:29:15.555Z,18.30
2018-02-06T13:31:44.015Z,19.97
2018-02-06T13:34:12.491Z,19.60
2018-02-06T13:36:40.949Z,20.67
2018-02-06T13:39:10.202Z,19.23
2018-02-06T13:41:39.364Z,19.70
2018-02-06T13:44:07.847Z,18.17
2018-02-06T13:46:36.312Z,18.07
2018-02-06T13:49:05.541Z,19.63
2018-02-06T13:51:34.011Z,19.80
2018-02-06T13:54:02.473Z,17.90
2018-02-06T13:56:31.726Z,17.47
2018-02-06T13:59:00.189Z,19.80
2018-02-06T14:01:28.682Z,19.57
2018-02-06T14:03:57.172Z,17.47
2018-02-06T14:06:25.662Z,19.63
2018-02-06T14:08:54.143Z,19.20
2018-02-06T14:11:22.704Z,18.63
2018-02-06T14:13:51.006Z,19.30
2018-02-06T14:16:19.497Z,20.20
2018-02-06T14:18:48.761Z,20.30
2018-02-06T14:21:17.242Z,19.10
2018-02-06T14:23:45.722Z,20.80
2018-02-06T14:26:14.258Z,19.10
2018-02-06T14:28:42.721Z,19.07
2018-02-06T14:31:11.962Z,19.73
2018-02-06T14:33:40.435Z,19.23
2018-02-06T14:36:09.392Z,19.50
2018-02-06T14:38:39.476Z,18.57
2018-02-06T14:41:07.957Z,19.63
2018-02-06T14:43:36.438Z,18.23
2018-02-06T14:46:06.230Z,19.07
2018-02-06T14:48:34.711Z,18.73
2018-02-06T14:51:03.188Z,18.37
2018-02-06T14:53:31.673Z,17.27
2018-02-06T14:56:00.161Z,16.77
2018-02-06T14:58:28.446Z,17.70
2018-02-06T15:00:56.946Z,17.43
2018-02-06T15:03:26.190Z,17.07
2018-02-06T15:05:54.016Z,17.07
2018-02-06T15:08:23.238Z,17.20
2018-02-06T15:10:51.728Z,16.70
2018-02-06T15:13:20.403Z,17.63
2018-02-06T15:15:48.899Z,15.80
2018-02-06T15:18:17.379Z,15.67
2018-02-06T15:20:45.872Z,16.33
2018-02-06T15:23:14.353Z,16.13
2018-02-06T15:25:42.847Z,16.20
2018-02-06T15:28:11.309Z,15.93
2018-02-06T15:30:39.777Z,15.63
2018-02-06T15:33:08.808Z,16.23
2018-02-06T15:35:37.291Z,15.90
2018-02-06T15:38:05.787Z,15.93
2018-02-06T15:40:35.032Z,15.37
2018-02-06T15:43:03.522Z,14.77
2018-02-06T15:45:31.983Z,15.43
2018-02-06T15:48:00.444Z,15.77
2018-02-06T15:50:29.532Z,14.67
2018-02-06T15:52:58.757Z,15.20
2018-02-06T15:55:27.051Z,16.40
2018-02-06T15:57:55.537Z,17.03
2018-02-06T16:00:29.475Z,16.97
2018-02-06T16:02:57.951Z,15.57
2018-02-06T16:05:26.418Z,15.83
2018-02-06T16:07:54.931Z,17.03
2018-02-06T16:10:24.170Z,16.33
2018-02-06T16:12:52.629Z,16.50
2018-02-06T16:15:21.100Z,15.90
2018-02-06T16:17:50.345Z,16.33
2018-02-06T16:20:18.825Z,15.23
2018-02-06T16:22:47.298Z,15.93
2018-02-06T16:25:15.792Z,17.53
2018-02-06T16:27:44.081Z,16.10
2018-02-06T16:30:12.559Z,17.33
2018-02-06T16:32:41.064Z,15.70
2018-02-06T16:35:10.304Z,15.80
2018-02-06T16:37:39.538Z,12.13
2018-02-06T16:40:08.675Z,14.27
2018-02-06T16:42:37.899Z,15.53
2018-02-06T16:45:06.372Z,13.43
2018-02-06T16:47:34.859Z,14.37
2018-02-06T16:50:03.370Z,14.07
2018-02-06T16:52:31.857Z,16.20
2018-02-06T16:55:00.349Z,14.57
2018-02-06T16:57:29.602Z,14.53
2018-02-06T16:59:58.084Z,14.80
2018-02-06T17:02:38.462Z,15.83
2018-02-06T17:05:07.899Z,15.00
2018-02-06T17:07:36.379Z,14.63
2018-02-06T17:10:04.530Z,14.07
2018-02-06T17:12:33.774Z,14.17
2018-02-06T17:15:02.297Z,13.00
2018-02-06T17:17:30.780Z,12.40
2018-02-06T17:19:59.289Z,14.33
2018-02-06T17:22:27.793Z,15.23
2018-02-06T17:24:56.311Z,15.00
2018-02-06T17:27:24.782Z,12.43
2018-02-06T17:29:53.291Z,15.30
2018-02-06T17:32:22.562Z,14.00
2018-02-06T17:34:51.044Z,13.80
2018-02-06T17:37:19.528Z,14.87
2018-02-06T17:39:48.014Z,14.00
2018-02-06T17:42:16.509Z,13.43
2018-02-06T17:44:45.775Z,13.87
2018-02-06T17:47:14.263Z,9.77
2018-02-06T17:49:42.740Z,15.20
2018-02-06T17:52:11.231Z,11.07
2018-02-06T17:54:40.648Z,15.13
2018-02-06T17:57:09.936Z,15.43
2018-02-06T17:59:39.194Z,13.83
2018-02-06T18:02:07.923Z,14.07
2018-02-06T18:04:37.924Z,11.90
2018-02-06T18:07:06.403Z,14.50
2018-02-06T18:09:34.925Z,9.27
2018-02-06T18:12:03.426Z,10.40
2018-02-06T18:14:31.913Z,14.83
2018-02-06T18:17:00.408Z,12.43
2018-02-06T18:19:28.919Z,13.23
2018-02-06T18:21:58.175Z,11.33
2018-02-06T18:24:26.651Z,6.63
2018-02-06T18:26:55.153Z,10.60
2018-02-06T18:29:23.644Z,13.97
2018-02-06T18:31:52.109Z,12.17
2018-02-06T18:34:20.621Z,11.43
2018-02-06T18:36:49.868Z,12.23
2018-02-06T18:39:18.342Z,10.57
2018-02-06T18:41:46.834Z,14.23
2018-02-06T18:44:15.312Z,9.43
2018-02-06T18:46:43.818Z,11.63
2018-02-06T18:49:12.315Z,10.90
2018-02-06T18:51:41.588Z,10.33
2018-02-06T18:54:10.119Z,9.27
2018-02-06T18:56:38.592Z,12.43
2018-02-06T18:59:07.537Z,13.13
2018-02-06T19:01:36.015Z,11.50
2018-02-06T19:04:04.624Z,11.97
2018-02-06T19:06:33.877Z,9.50
2018-02-06T19:09:02.373Z,10.97
2018-02-06T19:11:30.891Z,11.30
2018-02-06T19:13:59.401Z,7.67
2018-02-06T19:16:27.876Z,10.00
2018-02-06T19:18:56.345Z,10.43
2018-02-06T19:21:24.890Z,8.80
2018-02-06T19:23:53.531Z,6.93
2018-02-06T19:26:22.059Z,7.90
2018-02-06T19:28:51.341Z,6.33
2018-02-06T19:31:19.828Z,9.23
2018-02-06T19:33:48.328Z,8.13
2018-02-06T19:36:16.814Z,9.90
2018-02-06T19:38:45.331Z,6.97
2018-02-06T19:41:13.863Z,9.83
2018-02-06T19:43:43.120Z,7.93
2018-02-06T19:46:11.665Z,7.13
2018-02-06T19:48:39.828Z,9.00
2018-02-06T19:51:09.235Z,12.07
2018-02-06T19:53:38.362Z,7.07
2018-02-06T19:56:07.535Z,6.00
2018-02-06T19:58:36.016Z,8.17
2018-02-06T20:01:04.496Z,4.57
2018-02-06T20:03:32.974Z,8.17
2018-02-06T20:06:01.478Z,10.33
2018-02-06T20:08:29.961Z,6.90
2018-02-06T20:10:58.465Z,7.90
2018-02-06T20:13:26.979Z,10.13
2018-02-06T20:15:55.469Z,8.07
2018-02-06T20:18:23.992Z,8.77
2018-02-06T20:20:52.461Z,11.70
2018-02-06T20:23:20.774Z,9.50
2018-02-06T20:25:50.034Z,14.30
2018-02-06T20:28:19.283Z,9.27
2018-02-06T20:30:47.796Z,9.63
2018-02-06T20:33:16.270Z,10.33
2018-02-06T20:35:44.750Z,15.73
2018-02-06T20:38:13.219Z,7.63
2018-02-06T20:40:41.779Z,6.10
2018-02-06T20:43:11.024Z,12.10
2018-02-06T20:45:40.446Z,11.20
2018-02-06T20:48:09.601Z,11.77
2018-02-06T20:50:38.646Z,9.57
2018-02-06T20:53:07.946Z,8.90
2018-02-06T20:55:37.814Z,13.30
2018-02-06T20:58:06.362Z,12.27
2018-02-06T21:00:34.846Z,8.73
2018-02-06T21:03:03.344Z,8.27
2018-02-06T21:05:31.843Z,6.47
2018-02-06T21:08:00.334Z,6.27
2018-02-06T21:10:28.825Z,8.40
2018-02-06T21:12:57.312Z,7.90
2018-02-06T21:15:25.807Z,9.57
2018-02-06T21:17:55.063Z,7.67
2018-02-06T21:20:24.329Z,6.60
2018-02-06T21:22:52.815Z,10.67
2018-02-06T21:25:21.296Z,9.60
2018-02-06T21:27:49.790Z,9.20
2018-02-06T21:30:19.063Z,7.97
2018-02-06T21:32:47.553Z,4.10
2018-02-06T21:35:16.031Z,8.40
2018-02-06T21:37:44.509Z,8.17
2018-02-06T21:40:13.005Z,5.47
2018-02-06T21:42:41.499Z,9.90
2018-02-06T21:45:10.005Z,9.43
2018-02-06T21:47:39.251Z,8.93
2018-02-06T21:50:08.624Z,7.67
2018-02-06T21:52:37.950Z,8.47
2018-02-06T21:55:06.578Z,10.23
2018-02-06T21:57:35.153Z,8.23
2018-02-06T22:00:03.486Z,10.57
2018-02-06T22:02:31.956Z,10.43
2018-02-06T22:05:00.458Z,12.63
2018-02-06T22:07:28.954Z,11.03
2018-02-06T22:09:57.453Z,7.93
2018-02-06T22:12:25.937Z,5.70
2018-02-06T22:14:54.432Z,6.70
2018-02-06T22:17:23.678Z,11.00
2018-02-06T22:19:52.176Z,6.33
2018-02-06T22:22:20.670Z,10.50
2018-02-06T22:24:49.174Z,8.97
2018-02-06T22:27:18.415Z,9.03
2018-02-06T22:29:46.900Z,12.47
2018-02-06T22:32:16.180Z,7.70
2018-02-06T22:34:44.656Z,8.73
2018-02-06T22:37:13.148Z,8.87
2018-02-06T22:39:41.668Z,9.53
2018-02-06T22:42:10.148Z,12.47
2018-02-06T22:44:39.356Z,10.90
2018-02-06T22:47:09.202Z,10.97
2018-02-06T22:49:38.196Z,9.83
2018-02-06T22:52:06.678Z,14.67
2018-02-06T22:54:35.168Z,7.77
2018-02-06T22:57:03.639Z,7.80
2018-02-06T22:59:32.134Z,8.23
2018-02-06T23:02:00.618Z,13.93
2018-02-06T23:04:29.124Z,9.20
2018-02-06T23:06:57.625Z,6.90
2018-02-06T23:09:26.867Z,11.00
2018-02-06T23:11:55.365Z,7.80
2018-02-06T23:14:23.849Z,6.57
2018-02-06T23:16:52.318Z,8.10
2018-02-06T23:19:20.801Z,11.37
2018-02-06T23:21:50.068Z,9.20
2018-02-06T23:24:18.543Z,10.57
2018-02-06T23:26:47.021Z,17.03
2018-02-06T23:29:15.581Z,11.50
2018-02-06T23:31:44.824Z,11.13
2018-02-06T23:34:13.348Z,10.47
2018-02-06T23:36:42.599Z,16.23
2018-02-06T23:39:11.107Z,17.33
2018-02-06T23:41:40.142Z,18.47
2018-02-06T23:44:09.604Z,15.87
2018-02-06T23:46:38.579Z,18.13
2018-02-06T23:49:07.105Z,18.80
2018-02-06T23:51:36.352Z,11.23
2018-02-06T23:54:04.842Z,17.23
2018-02-06T23:56:33.336Z,19.13
2018-02-06T23:59:01.825Z,18.83
